Lewiston, California
Current Conditions -  °F | °C
As of 2:35 PM on Monday 20 Oct 2014 (Local Time) from KO54 Reporting Station
Scattered Clouds Scattered Clouds  
Wind Chill: 15°   Ceiling: Unl
Heat Index: 15°   Visibility: 10mi
Dew Point:   Wind: 6mph
Humidity: 59%   Direction: 240°WSW
Pressure: 29.89"   Gusts: NA
Location:  40.71°N, 122.81°W
Report Text: KO54 202135Z AUTO 24005KT 10SM FEW050 SCT060 15/07 A2989 RMK AO1
Loading
Personal Weather Stations






























Interactive Weather Map
Tropical Storm Tracking
New forecast layout! Learn more

10-Day Weather Forecast

Advertisements
Track Severe Weather on mobile